Terminal Aerodrome Forecast
Issued by NWS

Home | Current Version | Previous Version | Text Only | Print | Product List | Glossary On
Versions: 1 2 3 4 5 6 7 8 9 10 11 12 13 14 15 16 17 18 19 20 21 22 23 24 25 26 27
503
FTUS42 KJAX 220029 AAA
TAFCRG
TAF AMD
KCRG 220029Z 2200/2224 33012G20KT P6SM SCT045 OVC100
      TEMPO 2200/2203 31010G25KT 2SM +TSRA BR BKN040CB OVC060
     FM220300 21010G15KT P6SM VCTS SCT040CB BKN100
     FM220900 21010KT P6SM SCT008 BKN015
     FM221400 21020G30KT P6SM VCTS BKN025CB OVC050
     FM221600 21018G30KT P6SM VCTS SCT025CB OVC050
      TEMPO 2216/2220 P6SM -TSRA SCT020CB BKN050
     FM222000 21020G30KT P6SM VCTS SCT025CB BKN100
      TEMPO 2220/2224 P6SM -TSRA SCT020CB BKN050CB=

USA.gov is the U.S. government's official web portal to all federal, state and local government web resources and services.